createdAt,value
2022-11-18T00:02:00.956Z,6.89
2022-11-18T00:05:03.276Z,6.83
2022-11-18T00:08:05.313Z,6.69
2022-11-18T00:11:08.535Z,6.62
2022-11-18T00:14:22.137Z,6.56
2022-11-18T00:17:24.416Z,6.42
2022-11-18T00:20:26.354Z,6.36
2022-11-18T00:23:28.815Z,6.31
2022-11-18T00:26:30.711Z,6.36
2022-11-18T00:29:32.932Z,6.33
2022-11-18T00:32:34.865Z,6.21
2022-11-18T00:35:37.087Z,6.13
2022-11-18T00:38:39.584Z,6.19
2022-11-18T00:42:00.283Z,6.12
2022-11-18T00:45:02.248Z,6.08
2022-11-18T00:48:04.663Z,6.01
2022-11-18T00:51:11.563Z,6.00
2022-11-18T00:54:13.826Z,6.11
2022-11-18T00:57:15.778Z,6.02
2022-11-18T01:00:17.963Z,6.19
2022-11-18T01:03:20.025Z,6.10
2022-11-18T01:06:22.136Z,6.15
2022-11-18T01:09:24.043Z,6.04
2022-11-18T01:12:46.315Z,5.98
2022-11-18T01:15:50.859Z,6.05
2022-11-18T01:18:53.471Z,6.06
2022-11-18T01:21:56.578Z,6.10
2022-11-18T01:24:58.726Z,6.12
2022-11-18T01:28:00.725Z,6.11
2022-11-18T01:31:04.123Z,6.08
2022-11-18T01:34:06.067Z,6.03
2022-11-18T01:37:08.655Z,6.06
2022-11-18T01:40:10.785Z,6.07
2022-11-18T01:43:13.908Z,6.01
2022-11-18T01:46:16.130Z,5.96
2022-11-18T01:49:19.052Z,5.90
2022-11-18T01:52:21.866Z,5.85
2022-11-18T01:55:25.906Z,5.80
2022-11-18T01:58:32.099Z,5.85
2022-11-18T02:01:34.279Z,5.74
2022-11-18T02:04:37.465Z,5.72
2022-11-18T02:07:42.176Z,5.57
2022-11-18T02:10:44.174Z,5.55
2022-11-18T02:13:46.413Z,5.50
2022-11-18T02:17:03.223Z,5.52
2022-11-18T02:20:12.207Z,5.53
2022-11-18T02:23:14.126Z,5.41
2022-11-18T02:26:22.360Z,5.42
2022-11-18T02:29:26.341Z,5.58
2022-11-18T02:32:42.092Z,5.70
2022-11-18T02:35:50.058Z,5.85
2022-11-18T02:38:55.285Z,6.04
2022-11-18T02:41:59.873Z,6.26
2022-11-18T02:45:06.934Z,6.33
2022-11-18T02:48:10.401Z,6.41
2022-11-18T02:51:15.166Z,6.59
2022-11-18T02:54:18.939Z,6.61
2022-11-18T02:57:21.953Z,6.60
2022-11-18T03:00:23.889Z,6.66
2022-11-18T03:03:28.447Z,6.70
2022-11-18T03:06:33.820Z,6.73
2022-11-18T03:09:38.498Z,6.89
2022-11-18T03:12:47.121Z,6.93
2022-11-18T03:15:52.122Z,7.04
2022-11-18T03:19:05.555Z,7.06
2022-11-18T03:22:16.269Z,7.08
2022-11-18T03:25:33.637Z,7.00
2022-11-18T03:28:42.875Z,6.96
2022-11-18T03:31:47.662Z,7.07
2022-11-18T03:34:52.459Z,7.06
2022-11-18T03:37:57.868Z,7.14
2022-11-18T03:41:01.752Z,7.22
2022-11-18T03:44:10.174Z,7.30
2022-11-18T03:47:16.242Z,7.19
2022-11-18T03:50:21.899Z,7.25
2022-11-18T03:53:26.548Z,7.22
2022-11-18T03:56:35.873Z,7.24
2022-11-18T03:59:50.713Z,7.30
2022-11-18T04:02:52.668Z,7.38
2022-11-18T04:05:58.647Z,7.37
2022-11-18T04:09:02.339Z,7.32
2022-11-18T04:12:07.731Z,7.21
2022-11-18T04:15:10.107Z,7.12
2022-11-18T04:18:12.295Z,7.19
2022-11-18T04:21:14.166Z,7.18
2022-11-18T04:24:16.382Z,7.16
2022-11-18T04:27:18.276Z,7.21
2022-11-18T04:30:20.505Z,7.31
2022-11-18T04:33:22.455Z,7.22
2022-11-18T04:36:24.628Z,7.19
2022-11-18T04:39:26.631Z,7.25
2022-11-18T04:42:28.820Z,7.30
2022-11-18T04:45:30.726Z,7.36
2022-11-18T04:48:33.221Z,7.40
2022-11-18T04:51:35.332Z,7.39
2022-11-18T04:54:37.566Z,7.45
2022-11-18T04:57:39.428Z,7.37
2022-11-18T05:00:41.712Z,7.30
2022-11-18T05:03:47.753Z,7.51
2022-11-18T05:06:52.861Z,7.42
2022-11-18T05:09:54.925Z,7.36
2022-11-18T05:12:57.094Z,7.39
2022-11-18T05:16:01.022Z,7.53
2022-11-18T05:19:04.291Z,7.51
2022-11-18T05:22:06.990Z,7.47
2022-11-18T05:25:09.508Z,7.29
2022-11-18T05:28:11.605Z,7.43
2022-11-18T05:31:15.086Z,7.47
2022-11-18T05:36:54.767Z,7.86
2022-11-18T05:39:57.056Z,7.86
2022-11-18T05:43:12.661Z,7.29
2022-11-18T05:46:14.954Z,7.38
2022-11-18T05:49:17.099Z,7.37
2022-11-18T05:52:19.526Z,7.36
2022-11-18T05:55:23.760Z,7.12
2022-11-18T05:58:26.168Z,7.22
2022-11-18T06:01:33.126Z,7.28
2022-11-18T06:04:41.581Z,7.28
2022-11-18T06:07:44.545Z,7.30
2022-11-18T06:10:48.365Z,7.26
2022-11-18T06:13:54.520Z,7.28
2022-11-18T06:17:00.498Z,7.23
2022-11-18T06:20:03.046Z,7.26
2022-11-18T06:23:05.344Z,7.26
2022-11-18T06:26:09.953Z,7.23
2022-11-18T06:29:13.512Z,7.23
2022-11-18T06:32:15.646Z,7.11
2022-11-18T06:35:17.919Z,7.02
2022-11-18T06:38:19.961Z,7.22
2022-11-18T06:41:22.193Z,7.06
2022-11-18T06:44:24.104Z,7.15
2022-11-18T06:47:26.261Z,7.08
2022-11-18T06:50:28.468Z,7.21
2022-11-18T06:53:30.774Z,7.24
2022-11-18T06:56:34.448Z,7.21
2022-11-18T06:59:36.673Z,7.15
2022-11-18T07:02:38.842Z,7.09
2022-11-18T07:05:41.054Z,7.01
2022-11-18T07:08:43.376Z,7.00
2022-11-18T07:11:45.620Z,6.96
2022-11-18T07:14:47.583Z,6.98
2022-11-18T07:17:49.730Z,7.07
2022-11-18T07:20:51.679Z,7.09
2022-11-18T07:23:54.833Z,7.14
2022-11-18T07:26:57.127Z,7.11
2022-11-18T07:29:59.361Z,7.11
2022-11-18T07:33:01.346Z,7.18
2022-11-18T07:36:05.309Z,7.23
2022-11-18T07:39:07.866Z,7.23
2022-11-18T07:42:10.203Z,7.22
2022-11-18T07:45:12.563Z,7.34
2022-11-18T07:48:14.755Z,7.35
2022-11-18T07:51:17.863Z,7.39
2022-11-18T07:54:20.099Z,7.47
2022-11-18T07:57:22.023Z,7.55
2022-11-18T08:00:24.229Z,7.59
2022-11-18T08:03:27.781Z,7.52
2022-11-18T08:06:32.592Z,7.47
2022-11-18T08:09:34.924Z,7.45
2022-11-18T08:12:36.934Z,7.44
2022-11-18T08:15:42.997Z,7.60
2022-11-18T08:18:45.113Z,7.54
2022-11-18T08:21:47.303Z,7.60
2022-11-18T08:24:49.301Z,7.66
2022-11-18T08:27:52.575Z,7.55
2022-11-18T08:30:54.546Z,7.63
2022-11-18T08:34:01.353Z,7.70
2022-11-18T08:37:03.431Z,7.71
2022-11-18T08:40:05.979Z,7.73
2022-11-18T08:43:09.819Z,7.67
2022-11-18T08:46:12.547Z,7.66
2022-11-18T08:49:14.605Z,7.61
2022-11-18T08:52:16.865Z,7.59
2022-11-18T08:55:18.922Z,7.45
2022-11-18T08:58:21.152Z,7.32
2022-11-18T09:01:23.148Z,7.23
2022-11-18T09:04:25.463Z,7.11
2022-11-18T09:07:27.468Z,7.20
2022-11-18T09:10:29.761Z,7.26
2022-11-18T09:13:56.307Z,7.27
2022-11-18T09:16:53.962Z,7.23
2022-11-18T09:19:55.954Z,7.11
2022-11-18T09:22:58.244Z,7.09
2022-11-18T09:26:01.226Z,7.05
2022-11-18T09:29:03.763Z,7.01
2022-11-18T09:32:05.721Z,7.05
2022-11-18T09:35:08.125Z,7.06
2022-11-18T09:38:10.361Z,7.00
2022-11-18T09:41:12.776Z,7.04
2022-11-18T09:44:33.376Z,7.02
2022-11-18T09:47:35.947Z,6.98
2022-11-18T09:50:53.526Z,7.03
2022-11-18T09:53:55.719Z,6.98
2022-11-18T09:56:57.996Z,7.11
2022-11-18T10:00:01.303Z,7.19
2022-11-18T10:03:06.787Z,7.21
2022-11-18T10:06:11.998Z,7.19
2022-11-18T10:09:16.907Z,7.24
2022-11-18T10:12:57.947Z,7.28
2022-11-18T10:16:02.561Z,7.21
2022-11-18T10:19:04.730Z,7.14
2022-11-18T10:22:21.037Z,7.16
2022-11-18T10:25:26.221Z,7.13
2022-11-18T10:28:30.070Z,7.15
2022-11-18T10:31:32.260Z,7.15
2022-11-18T10:34:35.040Z,7.15
2022-11-18T10:38:07.258Z,7.09
2022-11-18T10:41:01.677Z,7.14
2022-11-18T10:44:07.983Z,7.15
2022-11-18T10:47:21.443Z,7.15
2022-11-18T10:50:56.300Z,7.10
2022-11-18T10:54:07.573Z,7.10
2022-11-18T10:57:11.119Z,6.97
2022-11-18T11:00:32.037Z,7.03
2022-11-18T11:03:42.144Z,7.04
2022-11-18T11:06:44.152Z,7.00
2022-11-18T11:09:58.723Z,6.97
2022-11-18T11:13:04.526Z,6.97
2022-11-18T11:16:07.183Z,6.89
2022-11-18T11:19:11.555Z,6.88
2022-11-18T11:22:14.391Z,6.81
2022-11-18T11:25:17.038Z,6.76
2022-11-18T11:28:29.721Z,6.79
2022-11-18T11:31:50.305Z,6.76
2022-11-18T11:35:02.237Z,6.77
2022-11-18T11:38:17.073Z,6.76
2022-11-18T11:41:22.012Z,6.70
2022-11-18T11:44:35.851Z,6.71
2022-11-18T11:47:49.390Z,6.78
2022-11-18T11:51:03.332Z,6.85
2022-11-18T11:54:19.720Z,6.73
2022-11-18T11:57:30.228Z,6.82
2022-11-18T12:00:35.795Z,6.88
2022-11-18T12:03:51.899Z,6.87
2022-11-18T12:06:55.766Z,6.91
2022-11-18T12:10:16.855Z,6.86
2022-11-18T12:13:18.760Z,6.89
2022-11-18T12:16:27.060Z,6.82
2022-11-18T12:19:29.120Z,6.72
2022-11-18T12:22:51.528Z,6.77
2022-11-18T12:25:56.320Z,6.72
2022-11-18T12:29:18.855Z,6.79
2022-11-18T12:32:26.328Z,6.76
2022-11-18T12:35:29.647Z,6.74
2022-11-18T12:38:32.165Z,6.71
2022-11-18T12:41:59.047Z,6.69
2022-11-18T12:45:20.900Z,6.61
2022-11-18T12:48:29.533Z,6.51
2022-11-18T12:51:40.647Z,6.50
2022-11-18T12:54:48.031Z,6.48
2022-11-18T12:57:49.915Z,6.53
2022-11-18T13:01:06.145Z,6.57
2022-11-18T13:04:11.132Z,6.60
2022-11-18T13:07:32.065Z,6.69
2022-11-18T13:10:35.452Z,6.62
2022-11-18T13:13:37.680Z,6.55
2022-11-18T13:16:58.241Z,6.45
2022-11-18T13:20:00.419Z,6.49
2022-11-18T13:23:25.615Z,6.58
2022-11-18T13:26:32.119Z,6.59
2022-11-18T13:29:37.137Z,6.55
2022-11-18T13:32:44.849Z,6.56
2022-11-18T13:35:46.816Z,6.42
2022-11-18T13:38:59.764Z,6.30
2022-11-18T13:42:14.817Z,6.36
2022-11-18T13:45:17.336Z,6.34
2022-11-18T13:48:19.555Z,6.39
2022-11-18T13:51:22.532Z,6.39
2022-11-18T13:54:27.140Z,6.38
2022-11-18T13:57:30.126Z,6.45
2022-11-18T14:00:33.874Z,6.28
2022-11-18T14:03:41.301Z,6.36
2022-11-18T14:06:43.768Z,6.36
2022-11-18T14:09:58.474Z,6.40
2022-11-18T14:13:01.068Z,6.36
2022-11-18T14:16:23.456Z,6.37
2022-11-18T14:19:30.524Z,6.30
2022-11-18T14:22:32.804Z,6.35
2022-11-18T14:25:36.026Z,6.38
2022-11-18T14:28:38.355Z,6.27
2022-11-18T14:31:40.378Z,6.24
2022-11-18T14:34:42.687Z,6.37
2022-11-18T14:37:45.792Z,6.30
2022-11-18T14:40:53.812Z,6.29
2022-11-18T14:43:55.714Z,6.32
2022-11-18T14:46:59.158Z,6.35
2022-11-18T14:50:01.044Z,6.33
2022-11-18T14:53:03.220Z,6.33
2022-11-18T14:56:11.651Z,6.39
2022-11-18T14:59:15.145Z,6.33
2022-11-18T15:02:17.678Z,6.34
2022-11-18T15:05:19.857Z,6.42
2022-11-18T15:08:21.704Z,6.51
2022-11-18T15:11:23.847Z,6.42
2022-11-18T15:14:25.768Z,6.42
2022-11-18T15:17:27.970Z,6.42
2022-11-18T15:20:30.154Z,6.36
2022-11-18T15:23:32.296Z,6.38
2022-11-18T15:26:35.877Z,6.42
2022-11-18T15:29:37.984Z,6.39
2022-11-18T15:32:40.514Z,6.37
2022-11-18T15:35:43.116Z,6.40
2022-11-18T15:38:45.064Z,6.42
2022-11-18T15:41:47.252Z,6.50
2022-11-18T15:44:49.138Z,6.35
2022-11-18T15:47:51.788Z,6.26
2022-11-18T15:50:54.439Z,6.28
2022-11-18T15:53:56.865Z,6.32
2022-11-18T15:56:58.764Z,6.37
2022-11-18T16:00:00.929Z,6.32
2022-11-18T16:03:02.934Z,6.40
2022-11-18T16:06:05.252Z,6.39
2022-11-18T16:09:07.149Z,6.38
2022-11-18T16:12:28.099Z,6.51
2022-11-18T16:15:47.944Z,6.50
2022-11-18T16:18:53.964Z,6.55
2022-11-18T16:21:57.068Z,6.57
2022-11-18T16:24:59.830Z,6.61
2022-11-18T16:28:06.904Z,6.56
2022-11-18T16:31:28.669Z,6.54
2022-11-18T16:34:30.701Z,6.62
2022-11-18T16:37:32.943Z,6.55
2022-11-18T16:40:34.930Z,6.54
2022-11-18T16:43:37.576Z,6.72
2022-11-18T16:46:40.601Z,6.62
2022-11-18T16:49:43.351Z,6.55
2022-11-18T16:52:45.634Z,6.67
2022-11-18T16:55:48.029Z,6.63
2022-11-18T16:58:50.290Z,6.57
2022-11-18T17:01:53.332Z,6.52
2022-11-18T17:04:55.448Z,6.54
2022-11-18T17:07:58.108Z,6.50
2022-11-18T17:11:07.184Z,6.56
2022-11-18T17:14:09.671Z,6.63
2022-11-18T17:17:11.589Z,6.69
2022-11-18T17:20:13.810Z,6.63
2022-11-18T17:23:15.671Z,6.67
2022-11-18T17:26:19.104Z,6.69
2022-11-18T17:29:21.643Z,6.72
2022-11-18T17:32:24.289Z,6.74
2022-11-18T17:35:28.458Z,6.70
2022-11-18T17:38:30.981Z,6.70
2022-11-18T17:41:51.664Z,6.65
2022-11-18T17:44:53.932Z,6.67
2022-11-18T17:47:57.347Z,6.64
2022-11-18T17:51:05.772Z,6.68
2022-11-18T17:54:08.309Z,6.65
2022-11-18T17:57:10.539Z,6.71
2022-11-18T18:00:12.720Z,6.70
2022-11-18T18:03:15.588Z,6.71
2022-11-18T18:06:18.996Z,6.77
2022-11-18T18:09:28.483Z,6.90
2022-11-18T18:13:03.920Z,6.85
2022-11-18T18:16:06.640Z,6.84
2022-11-18T18:19:09.621Z,6.91
2022-11-18T18:22:12.203Z,6.94
2022-11-18T18:25:14.205Z,6.88
2022-11-18T18:28:16.417Z,6.95
2022-11-18T18:31:18.771Z,6.90
2022-11-18T18:34:21.501Z,6.87
2022-11-18T18:37:23.881Z,6.81
2022-11-18T18:40:26.083Z,6.80
2022-11-18T18:43:27.992Z,6.87
2022-11-18T18:46:31.799Z,6.83
2022-11-18T18:49:33.705Z,6.79
2022-11-18T18:52:35.979Z,6.79
2022-11-18T18:55:42.008Z,6.93
2022-11-18T18:58:47.346Z,6.92
2022-11-18T19:01:49.303Z,6.87
2022-11-18T19:04:52.272Z,6.92
2022-11-18T19:07:54.374Z,7.02
2022-11-18T19:10:56.728Z,6.95
2022-11-18T19:14:09.568Z,6.93
2022-11-18T19:17:12.902Z,6.82
2022-11-18T19:20:33.688Z,6.85
2022-11-18T19:23:35.937Z,6.83
2022-11-18T19:26:37.837Z,6.90
2022-11-18T19:29:40.029Z,6.80
2022-11-18T19:32:42.228Z,6.79
2022-11-18T19:35:44.426Z,6.77
2022-11-18T19:38:49.170Z,6.75
2022-11-18T19:41:51.343Z,6.77
2022-11-18T19:44:53.330Z,6.72
2022-11-18T19:47:55.631Z,6.73
2022-11-18T19:51:08.405Z,6.67
2022-11-18T19:54:10.600Z,6.74
2022-11-18T19:57:12.553Z,6.65
2022-11-18T20:00:15.277Z,6.62
2022-11-18T20:03:17.869Z,6.59
2022-11-18T20:06:20.599Z,6.59
2022-11-18T20:09:22.810Z,6.67
2022-11-18T20:12:24.678Z,6.66
2022-11-18T20:15:26.900Z,6.56
2022-11-18T20:18:29.402Z,6.60
2022-11-18T20:21:33.037Z,6.64
2022-11-18T20:24:35.066Z,6.67
2022-11-18T20:27:37.408Z,6.67
2022-11-18T20:30:39.480Z,6.71
2022-11-18T20:33:42.997Z,6.71
2022-11-18T20:36:46.439Z,6.62
2022-11-18T20:39:48.677Z,6.51
2022-11-18T20:43:09.365Z,6.49
2022-11-18T20:46:17.269Z,6.53
2022-11-18T20:49:21.878Z,6.50
2022-11-18T20:52:24.144Z,6.52
2022-11-18T20:55:26.202Z,6.44
2022-11-18T20:58:28.432Z,6.35
2022-11-18T21:01:30.489Z,6.29
2022-11-18T21:04:33.108Z,6.29
2022-11-18T21:07:35.078Z,6.28
2022-11-18T21:10:37.375Z,6.12
2022-11-18T21:13:58.589Z,5.96
2022-11-18T21:17:01.166Z,5.89
2022-11-18T21:20:23.057Z,5.88
2022-11-18T21:23:25.315Z,5.88
2022-11-18T21:26:28.352Z,5.78
2022-11-18T21:29:31.582Z,5.74
2022-11-18T21:32:33.531Z,5.73
2022-11-18T21:35:35.893Z,5.67
2022-11-18T21:38:37.835Z,5.70
2022-11-18T21:41:40.505Z,5.40
2022-11-18T21:44:42.388Z,5.18
2022-11-18T21:47:44.781Z,4.94
2022-11-18T21:50:46.643Z,4.89
2022-11-18T21:53:49.077Z,4.83
2022-11-18T21:56:51.115Z,4.85
2022-11-18T21:59:53.388Z,4.78
2022-11-18T22:02:55.286Z,4.77
2022-11-18T22:05:57.479Z,4.74
2022-11-18T22:09:00.087Z,4.79
2022-11-18T22:12:02.329Z,4.80
2022-11-18T22:15:04.348Z,4.83
2022-11-18T22:18:06.582Z,4.94
2022-11-18T22:21:10.658Z,4.89
2022-11-18T22:24:12.918Z,4.87
2022-11-18T22:27:14.956Z,4.94
2022-11-18T22:30:17.194Z,4.96
2022-11-18T22:33:19.639Z,4.91
2022-11-18T22:36:23.367Z,4.81
2022-11-18T22:39:25.267Z,4.75
2022-11-18T22:42:45.869Z,4.77
2022-11-18T22:45:47.784Z,4.74
2022-11-18T22:48:50.158Z,4.65
2022-11-18T22:51:52.050Z,4.58
2022-11-18T22:54:54.287Z,4.54
2022-11-18T22:57:56.136Z,4.47
2022-11-18T23:01:05.626Z,4.39
2022-11-18T23:04:07.716Z,4.19
2022-11-18T23:07:10.016Z,4.14
2022-11-18T23:10:12.186Z,4.11
2022-11-18T23:13:32.908Z,4.03
2022-11-18T23:16:36.710Z,3.99
2022-11-18T23:19:43.459Z,3.88
2022-11-18T23:22:45.399Z,3.91
2022-11-18T23:25:47.614Z,3.80
2022-11-18T23:28:49.572Z,3.68
2022-11-18T23:31:52.819Z,3.66
2022-11-18T23:34:54.767Z,3.65
2022-11-18T23:37:56.940Z,3.66
2022-11-18T23:41:03.400Z,3.55
2022-11-18T23:44:05.962Z,3.63
2022-11-18T23:47:07.956Z,3.70
2022-11-18T23:50:10.206Z,3.60
2022-11-18T23:53:12.069Z,3.67
2022-11-18T23:56:18.612Z,3.56
2022-11-18T23:59:20.762Z,3.44
